createdAt,value
2023-06-17T00:01:12.059Z,90.22
2023-06-17T00:03:45.153Z,90.27
2023-06-17T00:06:11.646Z,90.45
2023-06-17T00:08:38.283Z,90.65
2023-06-17T00:11:05.847Z,90.75
2023-06-17T00:13:33.210Z,90.83
2023-06-17T00:15:59.618Z,90.93
2023-06-17T00:18:26.823Z,91.18
2023-06-17T00:20:54.177Z,91.22
2023-06-17T00:23:21.221Z,91.14
2023-06-17T00:25:48.888Z,91.12
2023-06-17T00:28:15.900Z,91.19
2023-06-17T00:30:46.603Z,91.38
2023-06-17T00:33:13.934Z,91.45
2023-06-17T00:36:54.002Z,91.57
2023-06-17T00:40:50.748Z,91.68
2023-06-17T00:43:17.135Z,91.57
2023-06-17T00:45:44.795Z,91.40
2023-06-17T00:48:11.724Z,91.53
2023-06-17T00:50:38.449Z,91.72
2023-06-17T00:53:05.901Z,91.73
2023-06-17T00:55:33.196Z,91.73
2023-06-17T00:58:01.078Z,91.69
2023-06-17T01:00:27.471Z,91.75
2023-06-17T01:02:54.072Z,91.78
2023-06-17T01:05:20.731Z,91.90
2023-06-17T01:08:14.740Z,92.09
2023-06-17T01:10:49.287Z,92.28
2023-06-17T01:13:16.588Z,92.29
2023-06-17T01:15:44.422Z,92.31
2023-06-17T01:18:12.230Z,92.31
2023-06-17T01:20:39.849Z,92.32
2023-06-17T01:23:06.866Z,92.31
2023-06-17T01:25:35.141Z,92.27
2023-06-17T01:28:16.359Z,92.29
2023-06-17T01:30:54.947Z,92.23
2023-06-17T01:33:23.324Z,92.24
2023-06-17T01:35:59.112Z,92.18
2023-06-17T01:38:30.815Z,92.22
2023-06-17T01:41:10.415Z,92.22
2023-06-17T01:43:40.467Z,92.35
2023-06-17T01:46:07.885Z,92.28
2023-06-17T01:48:34.240Z,92.24
2023-06-17T01:51:00.731Z,92.24
2023-06-17T01:53:29.196Z,92.27
2023-06-17T01:55:56.017Z,92.30
2023-06-17T01:58:22.707Z,92.30
2023-06-17T02:00:49.194Z,92.34
2023-06-17T02:03:16.640Z,92.39
2023-06-17T02:05:43.757Z,92.46
2023-06-17T02:08:11.401Z,92.44
2023-06-17T02:10:38.677Z,92.53
2023-06-17T02:13:05.107Z,92.51
2023-06-17T02:15:31.644Z,92.46
2023-06-17T02:17:58.702Z,92.46
2023-06-17T02:20:26.145Z,92.51
2023-06-17T02:22:53.236Z,92.54
2023-06-17T02:25:20.404Z,92.56
2023-06-17T02:27:46.928Z,92.60
2023-06-17T02:30:13.591Z,92.61
2023-06-17T02:32:40.063Z,92.60
2023-06-17T02:35:06.757Z,92.62
2023-06-17T02:37:33.749Z,92.70
2023-06-17T02:40:00.210Z,92.70
2023-06-17T02:42:26.654Z,92.61
2023-06-17T02:44:53.046Z,92.59
2023-06-17T02:47:19.586Z,92.68
2023-06-17T02:49:46.092Z,92.77
2023-06-17T02:52:12.474Z,92.73
2023-06-17T02:54:38.858Z,92.69
2023-06-17T02:57:05.677Z,92.65
2023-06-17T02:59:34.165Z,92.68
2023-06-17T03:04:38.193Z,92.83
2023-06-17T03:07:06.954Z,92.86
2023-06-17T03:09:34.802Z,92.68
2023-06-17T03:12:04.205Z,92.73
2023-06-17T03:14:31.985Z,92.70
2023-06-17T03:17:00.287Z,92.54
2023-06-17T03:19:28.420Z,92.39
2023-06-17T03:21:56.896Z,92.40
2023-06-17T03:24:25.446Z,92.44
2023-06-17T03:26:54.608Z,92.51
2023-06-17T03:29:22.577Z,92.52
2023-06-17T03:31:51.251Z,92.58
2023-06-17T03:34:19.139Z,92.63
2023-06-17T03:36:48.481Z,92.50
2023-06-17T03:39:16.558Z,92.40
2023-06-17T03:41:44.572Z,92.47
2023-06-17T03:44:12.412Z,92.62
2023-06-17T03:46:40.210Z,92.72
2023-06-17T03:49:09.014Z,92.71
2023-06-17T03:51:38.052Z,92.57
2023-06-17T03:54:05.998Z,92.46
2023-06-17T03:56:33.835Z,92.45
2023-06-17T03:59:01.791Z,92.47
2023-06-17T04:01:31.748Z,92.53
2023-06-17T04:03:59.754Z,92.60
2023-06-17T04:06:27.752Z,92.63
2023-06-17T04:08:55.565Z,92.65
2023-06-17T04:11:23.442Z,92.52
2023-06-17T04:13:51.244Z,92.55
2023-06-17T04:16:19.101Z,92.59
2023-06-17T04:18:48.124Z,92.58
2023-06-17T04:21:16.052Z,92.48
2023-06-17T04:23:43.837Z,92.39
2023-06-17T04:26:14.196Z,92.19
2023-06-17T04:28:42.087Z,92.25
2023-06-17T04:31:12.194Z,92.46
2023-06-17T04:33:41.574Z,92.52
2023-06-17T04:36:10.081Z,92.32
2023-06-17T04:38:39.641Z,91.90
2023-06-17T04:41:07.670Z,91.83
2023-06-17T04:43:38.231Z,91.62
2023-06-17T04:46:06.451Z,91.42
2023-06-17T04:48:34.188Z,91.48
2023-06-17T04:51:01.974Z,91.40
2023-06-17T04:53:29.728Z,91.56
2023-06-17T04:55:57.809Z,91.69
2023-06-17T04:58:25.674Z,91.67
2023-06-17T05:00:53.520Z,91.68
2023-06-17T05:03:21.321Z,91.61
2023-06-17T05:05:49.396Z,91.42
2023-06-17T05:08:17.350Z,91.39
2023-06-17T05:10:45.197Z,91.24
2023-06-17T05:13:13.028Z,90.96
2023-06-17T05:15:40.916Z,90.80
2023-06-17T05:18:08.715Z,90.73
2023-06-17T05:20:36.465Z,90.74
2023-06-17T05:23:04.311Z,90.70
2023-06-17T05:25:32.073Z,90.55
2023-06-17T05:28:00.968Z,90.40
2023-06-17T05:30:29.034Z,89.89
2023-06-17T05:32:56.910Z,89.18
2023-06-17T05:35:24.668Z,88.86
2023-06-17T05:37:52.508Z,88.80
2023-06-17T05:40:20.402Z,88.49
2023-06-17T05:42:48.485Z,88.40
2023-06-17T05:45:16.337Z,88.50
2023-06-17T05:47:44.168Z,88.56
2023-06-17T05:50:11.990Z,88.17
2023-06-17T05:52:39.930Z,87.18
2023-06-17T05:55:08.373Z,86.84
2023-06-17T05:57:36.705Z,87.31
2023-06-17T06:00:07.290Z,87.58
2023-06-17T06:02:35.171Z,87.44
2023-06-17T06:05:04.498Z,87.26
2023-06-17T06:07:34.879Z,87.16
2023-06-17T06:10:09.012Z,87.02
2023-06-17T06:12:36.851Z,86.49
2023-06-17T06:15:07.157Z,85.56
2023-06-17T06:17:35.270Z,84.49
2023-06-17T06:20:04.481Z,84.18
2023-06-17T06:22:32.389Z,84.21
2023-06-17T06:25:00.345Z,84.46
2023-06-17T06:27:54.129Z,84.63
2023-06-17T06:30:22.238Z,84.63
2023-06-17T06:32:50.503Z,85.00
2023-06-17T06:35:18.420Z,85.36
2023-06-17T06:37:46.281Z,85.48
2023-06-17T06:40:14.448Z,84.86
2023-06-17T06:42:42.444Z,84.05
2023-06-17T06:45:11.392Z,83.35
2023-06-17T06:47:40.052Z,81.82
2023-06-17T06:50:11.096Z,81.19
2023-06-17T06:52:38.959Z,81.01
2023-06-17T06:55:12.597Z,80.74
2023-06-17T06:57:40.744Z,81.24
2023-06-17T07:00:13.608Z,81.60
2023-06-17T07:02:41.581Z,81.78
2023-06-17T07:05:10.980Z,81.85
2023-06-17T07:07:39.000Z,81.87
2023-06-17T07:10:07.387Z,80.98
2023-06-17T07:12:35.297Z,79.70
2023-06-17T07:15:03.310Z,79.17
2023-06-17T07:17:32.912Z,78.01
2023-06-17T07:20:00.866Z,77.22
2023-06-17T07:23:44.674Z,76.58
2023-06-17T07:26:13.589Z,75.88
2023-06-17T07:28:41.569Z,73.52
2023-06-17T07:31:09.789Z,73.89
2023-06-17T07:33:39.733Z,73.89
2023-06-17T07:36:11.525Z,72.81
2023-06-17T07:38:43.616Z,70.89
2023-06-17T07:41:12.218Z,69.90
2023-06-17T07:43:40.242Z,67.14
2023-06-17T07:46:10.752Z,64.32
2023-06-17T07:48:38.743Z,63.02
2023-06-17T07:51:08.306Z,65.45
2023-06-17T07:53:41.216Z,64.92
2023-06-17T07:56:09.620Z,62.73
2023-06-17T07:58:39.986Z,63.63
2023-06-17T08:01:10.145Z,64.58
2023-06-17T08:03:38.069Z,62.20
2023-06-17T08:06:06.705Z,61.47
2023-06-17T08:08:35.460Z,61.25
2023-06-17T08:11:03.455Z,60.62
2023-06-17T08:13:35.647Z,61.83
2023-06-17T08:16:13.882Z,61.75
2023-06-17T08:18:43.040Z,60.30
2023-06-17T08:22:02.304Z,61.36
2023-06-17T08:24:30.300Z,60.55
2023-06-17T08:27:00.570Z,58.98
2023-06-17T08:29:29.286Z,59.69
2023-06-17T08:31:57.270Z,59.17
2023-06-17T08:34:25.258Z,57.71
2023-06-17T08:36:56.395Z,57.12
2023-06-17T08:39:24.229Z,57.78
2023-06-17T08:41:52.231Z,56.89
2023-06-17T08:44:23.560Z,55.57
2023-06-17T08:46:54.311Z,56.02
2023-06-17T08:49:29.121Z,56.35
2023-06-17T08:52:02.532Z,56.05
2023-06-17T08:54:34.342Z,55.86
2023-06-17T08:57:03.337Z,55.37
2023-06-17T08:59:34.625Z,56.03
2023-06-17T09:02:15.828Z,55.70
2023-06-17T09:04:45.878Z,54.68
2023-06-17T09:07:14.672Z,52.29
2023-06-17T09:09:49.488Z,53.18
2023-06-17T09:12:17.547Z,53.57
2023-06-17T09:14:48.771Z,52.77
2023-06-17T09:17:30.199Z,52.02
2023-06-17T09:20:11.499Z,49.90
2023-06-17T09:22:44.456Z,47.22
2023-06-17T09:25:16.925Z,49.20
2023-06-17T09:28:11.000Z,47.65
2023-06-17T09:30:43.738Z,48.90
2023-06-17T09:33:22.935Z,49.84
2023-06-17T09:36:02.288Z,50.83
2023-06-17T09:38:34.797Z,47.90
2023-06-17T09:41:06.474Z,46.39
2023-06-17T09:43:35.155Z,46.50
2023-06-17T09:46:06.245Z,44.45
2023-06-17T09:48:38.544Z,44.68
2023-06-17T09:51:10.858Z,44.45
2023-06-17T09:53:42.374Z,42.79
2023-06-17T09:56:12.328Z,40.61
2023-06-17T09:58:44.546Z,42.31
2023-06-17T10:01:14.977Z,40.95
2023-06-17T10:03:43.141Z,40.00
2023-06-17T10:06:13.434Z,39.21
2023-06-17T10:08:44.069Z,40.16
2023-06-17T10:11:16.745Z,41.10
2023-06-17T10:13:52.892Z,40.95
2023-06-17T10:16:25.799Z,41.77
2023-06-17T10:18:58.068Z,40.82
2023-06-17T10:21:30.525Z,39.77
2023-06-17T10:24:01.786Z,38.96
2023-06-17T10:26:32.276Z,40.63
2023-06-17T10:29:03.533Z,42.31
2023-06-17T10:31:33.230Z,45.00
2023-06-17T10:34:02.978Z,43.52
2023-06-17T10:36:34.980Z,44.38
2023-06-17T10:39:08.567Z,45.27
2023-06-17T10:41:39.483Z,46.18
2023-06-17T10:44:29.388Z,47.02
2023-06-17T10:46:57.952Z,48.20
2023-06-17T10:49:26.813Z,50.55
2023-06-17T10:52:00.877Z,51.39
2023-06-17T10:54:30.839Z,49.51
2023-06-17T10:57:02.946Z,49.38
2023-06-17T10:59:34.349Z,50.77
2023-06-17T11:02:04.742Z,49.85
2023-06-17T11:04:35.065Z,50.50
2023-06-17T11:07:04.194Z,51.48
2023-06-17T11:09:35.101Z,53.04
2023-06-17T11:12:05.045Z,53.64
2023-06-17T11:14:34.542Z,54.20
2023-06-17T11:17:03.021Z,54.73
2023-06-17T11:19:30.892Z,55.42
2023-06-17T11:22:04.547Z,55.95
2023-06-17T11:24:40.974Z,57.45
2023-06-17T11:27:12.072Z,57.19
2023-06-17T11:29:43.234Z,56.63
2023-06-17T11:32:12.242Z,56.36
2023-06-17T11:34:54.399Z,56.71
2023-06-17T11:37:22.892Z,56.89
2023-06-17T11:39:50.669Z,56.71
2023-06-17T11:42:20.545Z,56.65
2023-06-17T11:44:49.294Z,57.54
2023-06-17T11:47:17.464Z,58.26
2023-06-17T11:49:45.384Z,58.25
2023-06-17T11:52:15.310Z,57.86
2023-06-17T11:54:47.166Z,56.23
2023-06-17T11:57:23.163Z,55.38
2023-06-17T11:59:52.362Z,55.84
2023-06-17T12:02:21.023Z,54.33
2023-06-17T12:04:49.277Z,54.94
2023-06-17T12:07:17.177Z,55.99
2023-06-17T12:09:53.404Z,55.62
2023-06-17T12:12:36.058Z,52.58
2023-06-17T12:17:43.616Z,50.41
2023-06-17T12:20:16.145Z,44.49
2023-06-17T12:22:45.968Z,44.90
2023-06-17T12:25:17.425Z,44.02
2023-06-17T12:27:45.650Z,41.45
2023-06-17T12:30:15.251Z,41.16
2023-06-17T12:32:44.509Z,39.61
2023-06-17T12:35:15.646Z,40.10
2023-06-17T12:37:45.225Z,42.26
2023-06-17T12:40:14.663Z,40.53
2023-06-17T12:42:43.565Z,40.65
2023-06-17T12:45:11.743Z,39.87
2023-06-17T12:47:40.270Z,39.79
2023-06-17T12:50:09.204Z,37.30
2023-06-17T12:52:37.435Z,37.69
2023-06-17T12:55:07.179Z,38.48
2023-06-17T12:57:35.366Z,38.77
2023-06-17T13:00:07.603Z,40.86
2023-06-17T13:02:37.353Z,41.86
2023-06-17T13:05:08.384Z,40.23
2023-06-17T13:07:37.619Z,41.36
2023-06-17T13:10:06.915Z,41.08
2023-06-17T13:12:35.094Z,43.25
2023-06-17T13:15:06.233Z,44.46
2023-06-17T13:17:34.225Z,44.56
2023-06-17T13:20:04.429Z,44.73
2023-06-17T13:22:39.233Z,44.39
2023-06-17T13:25:14.742Z,42.96
2023-06-17T13:27:43.679Z,41.26
2023-06-17T13:30:14.295Z,40.35
2023-06-17T13:32:42.438Z,41.53
2023-06-17T13:35:11.600Z,44.03
2023-06-17T13:37:40.122Z,41.33
2023-06-17T13:40:09.900Z,41.35
2023-06-17T13:42:38.068Z,42.49
2023-06-17T13:45:07.756Z,42.27
2023-06-17T13:47:35.702Z,38.76
2023-06-17T13:50:07.831Z,37.70
2023-06-17T13:56:42.974Z,35.82
2023-06-17T13:59:14.081Z,37.42
2023-06-17T14:01:42.421Z,36.14
2023-06-17T14:04:12.126Z,35.78
2023-06-17T14:06:41.203Z,37.37
2023-06-17T14:09:09.159Z,38.19
2023-06-17T14:11:38.879Z,37.45
2023-06-17T14:14:07.105Z,36.95
2023-06-17T14:16:35.205Z,38.31
2023-06-17T14:19:05.362Z,39.02
2023-06-17T14:21:35.788Z,39.33
2023-06-17T14:24:12.150Z,39.02
2023-06-17T14:26:42.001Z,40.59
2023-06-17T14:29:10.878Z,40.56
2023-06-17T14:31:39.925Z,38.31
2023-06-17T14:34:07.758Z,39.34
2023-06-17T14:36:35.962Z,39.70
2023-06-17T14:39:04.172Z,40.01
2023-06-17T14:41:33.754Z,40.53
2023-06-17T14:44:02.260Z,39.52
2023-06-17T14:46:30.074Z,39.97
2023-06-17T14:48:58.009Z,39.98
2023-06-17T14:51:25.832Z,38.09
2023-06-17T14:53:54.927Z,35.93
2023-06-17T14:56:29.094Z,34.76
2023-06-17T14:58:58.636Z,33.97
2023-06-17T15:01:27.706Z,33.44
2023-06-17T15:03:56.765Z,32.89
2023-06-17T15:06:25.006Z,32.38
2023-06-17T15:09:26.518Z,33.00
2023-06-17T15:12:10.949Z,34.47
2023-06-17T15:14:38.777Z,36.13
2023-06-17T15:17:07.590Z,37.47
2023-06-17T15:19:37.685Z,37.73
2023-06-17T15:22:05.877Z,38.19
2023-06-17T15:24:34.209Z,38.37
2023-06-17T15:27:02.214Z,39.44
2023-06-17T15:29:30.073Z,40.30
2023-06-17T15:31:58.082Z,41.10
2023-06-17T15:34:26.049Z,42.30
2023-06-17T15:36:54.587Z,43.11
2023-06-17T15:39:26.490Z,43.91
2023-06-17T15:41:54.880Z,44.58
2023-06-17T15:44:23.325Z,45.06
2023-06-17T15:46:53.688Z,46.04
2023-06-17T15:49:21.662Z,45.75
2023-06-17T15:51:49.450Z,46.13
2023-06-17T15:54:19.263Z,47.14
2023-06-17T15:56:47.873Z,48.62
2023-06-17T15:59:16.464Z,49.16
2023-06-17T16:01:44.517Z,49.61
2023-06-17T16:04:33.748Z,49.19
2023-06-17T16:07:03.998Z,48.32
2023-06-17T16:09:33.898Z,48.29
2023-06-17T16:12:05.404Z,47.80
2023-06-17T16:14:34.256Z,47.61
2023-06-17T16:17:04.205Z,47.96
2023-06-17T16:19:33.064Z,48.10
2023-06-17T16:22:03.426Z,48.28
2023-06-17T16:24:36.066Z,48.60
2023-06-17T16:27:04.131Z,48.38
2023-06-17T16:29:32.396Z,48.44
2023-06-17T16:32:00.328Z,48.81
2023-06-17T16:34:28.266Z,49.46
2023-06-17T16:36:56.231Z,49.65
2023-06-17T16:39:24.100Z,49.38
2023-06-17T16:41:52.039Z,48.69
2023-06-17T16:44:19.944Z,49.17
2023-06-17T16:46:49.309Z,49.66
2023-06-17T16:49:19.003Z,49.57
2023-06-17T16:51:47.951Z,50.30
2023-06-17T16:54:16.021Z,50.55
2023-06-17T16:56:44.040Z,50.84
2023-06-17T16:59:12.096Z,51.64
2023-06-17T17:01:40.584Z,51.97
2023-06-17T17:04:12.895Z,52.67
2023-06-17T17:06:43.337Z,53.26
2023-06-17T17:09:12.314Z,53.57
2023-06-17T17:11:41.660Z,53.97
2023-06-17T17:14:09.604Z,54.29
2023-06-17T17:16:37.719Z,54.59
2023-06-17T17:19:06.216Z,54.77
2023-06-17T17:21:35.274Z,55.02
2023-06-17T17:24:06.080Z,55.33
2023-06-17T17:27:46.976Z,55.87
2023-06-17T17:31:24.537Z,56.32
2023-06-17T17:35:04.998Z,56.88
2023-06-17T17:37:36.867Z,57.22
2023-06-17T17:40:07.181Z,57.96
2023-06-17T17:42:37.762Z,58.70
2023-06-17T17:45:07.579Z,59.07
2023-06-17T17:47:36.046Z,59.41
2023-06-17T17:50:06.691Z,59.80
2023-06-17T17:52:34.890Z,60.40
2023-06-17T17:55:03.251Z,60.96
2023-06-17T17:59:03.644Z,61.15
2023-06-17T18:02:44.077Z,61.44
2023-06-17T18:06:26.066Z,61.88
2023-06-17T18:10:24.307Z,62.87
2023-06-17T18:14:02.793Z,63.44
2023-06-17T18:17:21.240Z,64.32
2023-06-17T18:20:58.764Z,64.87
2023-06-17T18:24:36.706Z,65.04
2023-06-17T18:27:05.187Z,65.27
2023-06-17T18:29:33.390Z,65.85
2023-06-17T18:32:02.444Z,66.11
2023-06-17T18:34:30.475Z,66.47
2023-06-17T18:38:28.966Z,66.67
2023-06-17T18:42:06.138Z,66.28
2023-06-17T18:46:06.045Z,66.15
2023-06-17T18:48:32.880Z,66.27
2023-06-17T18:50:59.438Z,66.50
2023-06-17T18:53:25.967Z,66.82
2023-06-17T18:55:52.638Z,67.12
2023-06-17T18:58:19.285Z,67.01
2023-06-17T19:00:46.211Z,66.86
2023-06-17T19:03:12.928Z,67.02
2023-06-17T19:05:40.352Z,67.44
2023-06-17T19:08:07.174Z,67.86
2023-06-17T19:10:33.694Z,68.30
2023-06-17T19:13:02.840Z,68.88
2023-06-17T19:15:33.571Z,69.33
2023-06-17T19:18:01.001Z,69.65
2023-06-17T19:20:27.869Z,69.69
2023-06-17T19:22:54.463Z,69.69
2023-06-17T19:25:21.116Z,69.76
2023-06-17T19:27:48.099Z,69.89
2023-06-17T19:30:16.721Z,70.18
2023-06-17T19:32:43.378Z,70.48
2023-06-17T19:35:10.154Z,70.61
2023-06-17T19:37:54.741Z,70.58
2023-06-17T19:40:24.432Z,70.15
2023-06-17T19:42:52.819Z,69.84
2023-06-17T19:45:27.942Z,69.79
2023-06-17T19:48:02.341Z,69.54
2023-06-17T19:53:10.283Z,69.59
2023-06-17T19:56:43.818Z,69.46
2023-06-17T19:59:51.786Z,69.50
2023-06-17T20:03:09.956Z,69.66
2023-06-17T20:06:51.417Z,69.81
2023-06-17T20:10:49.256Z,69.77
2023-06-17T20:13:16.599Z,69.84
2023-06-17T20:15:43.581Z,70.08
2023-06-17T20:18:10.669Z,70.43
2023-06-17T20:20:37.505Z,70.63
2023-06-17T20:23:04.287Z,70.69
2023-06-17T20:25:31.611Z,71.15
2023-06-17T20:27:58.252Z,71.51
2023-06-17T20:30:26.496Z,71.73
2023-06-17T20:32:53.342Z,71.82
2023-06-17T20:35:19.989Z,72.01
2023-06-17T20:37:46.876Z,72.45
2023-06-17T20:40:13.823Z,72.71
2023-06-17T20:42:40.463Z,72.97
2023-06-17T20:45:11.662Z,73.32
2023-06-17T20:47:38.431Z,73.53
2023-06-17T20:50:06.697Z,73.79
2023-06-17T20:52:33.334Z,73.97
2023-06-17T20:55:03.912Z,73.97
2023-06-17T20:57:33.103Z,74.00
2023-06-17T21:00:00.700Z,74.04
2023-06-17T21:02:27.358Z,74.03
2023-06-17T21:04:56.398Z,74.05
2023-06-17T21:07:23.130Z,74.09
2023-06-17T21:09:51.291Z,73.91
2023-06-17T21:12:21.644Z,74.10
2023-06-17T21:14:48.521Z,74.27
2023-06-17T21:17:15.883Z,74.43
2023-06-17T21:19:42.386Z,74.66
2023-06-17T21:22:09.031Z,75.04
2023-06-17T21:24:35.682Z,75.34
2023-06-17T21:27:02.576Z,75.60
2023-06-17T21:29:29.028Z,75.82
2023-06-17T21:31:55.458Z,75.90
2023-06-17T21:34:21.992Z,75.97
2023-06-17T21:36:48.469Z,76.02
2023-06-17T21:39:15.467Z,76.17
2023-06-17T21:41:42.060Z,76.32
2023-06-17T21:44:09.753Z,76.30
2023-06-17T21:46:36.388Z,76.16
2023-06-17T21:49:02.877Z,76.29
2023-06-17T21:51:29.301Z,76.52
2023-06-17T21:53:55.910Z,76.67
2023-06-17T21:56:22.540Z,76.85
2023-06-17T21:58:49.079Z,76.78
2023-06-17T22:01:15.987Z,76.71
2023-06-17T22:03:42.733Z,76.86
2023-06-17T22:06:09.326Z,76.84
2023-06-17T22:08:42.852Z,76.93
2023-06-17T22:11:11.482Z,77.24
2023-06-17T22:13:39.674Z,77.42
2023-06-17T22:16:06.454Z,77.33
2023-06-17T22:18:57.895Z,77.42
2023-06-17T22:22:37.695Z,77.42
2023-06-17T22:25:07.938Z,77.46
2023-06-17T22:27:35.823Z,77.62
2023-06-17T22:30:04.420Z,77.80
2023-06-17T22:32:33.688Z,77.97
2023-06-17T22:35:04.926Z,78.21
2023-06-17T22:37:33.572Z,78.34
2023-06-17T22:40:01.444Z,78.48
2023-06-17T22:42:29.261Z,78.66
2023-06-17T22:44:57.213Z,78.88
2023-06-17T22:47:25.228Z,78.99
2023-06-17T22:49:54.550Z,79.06
2023-06-17T22:52:22.432Z,79.11
2023-06-17T22:54:50.544Z,79.15
2023-06-17T22:57:18.563Z,79.21
2023-06-17T22:59:46.902Z,79.23
2023-06-17T23:02:14.819Z,79.30
2023-06-17T23:04:43.309Z,79.47
2023-06-17T23:07:11.881Z,79.67
2023-06-17T23:11:48.891Z,79.77
2023-06-17T23:14:16.721Z,79.70
2023-06-17T23:16:45.754Z,79.80
2023-06-17T23:19:13.619Z,80.00
2023-06-17T23:21:41.771Z,80.03
2023-06-17T23:25:41.543Z,80.01
2023-06-17T23:29:39.449Z,79.87
2023-06-17T23:32:58.530Z,79.83
2023-06-17T23:35:27.197Z,79.85
2023-06-17T23:37:55.398Z,80.06
2023-06-17T23:40:23.557Z,80.24
2023-06-17T23:48:30.915Z,80.81
2023-06-17T23:52:27.915Z,80.97
2023-06-17T23:54:54.471Z,80.96
2023-06-17T23:57:21.333Z,81.03
2023-06-17T23:59:47.949Z,81.17
